Sunday, November 19, 2017, 11:12 PM EST
Back to Local

KFOK, The Gabreski Airport

Location: East Quogue, NY, United States Lat: 40.85
Local Time: 11:12 PM EST ( 4:12 GMT) Lon: -72.617
Time Zone: US/Eastern Elev: 65 ft

Show me the last for .
Show Decoded

2017-11-19 22:53 METAR KFOK 200353Z 29014KT 10SM FEW090 06/M04 A2975 RMK AO2 SLP074 T00561039 $ =
2017-11-19 21:53 METAR KFOK 200253Z 29010KT 10SM CLR 06/M04 A2973 RMK AO2 SLP068 T00561044 51021
                 $ =
2017-11-19 20:53 METAR KFOK 200153Z 28011KT 10SM CLR 06/M05 A2972 RMK AO2 SLP064 T00561050 $ =
2017-11-19 19:53 METAR KFOK 200053Z 30014G23KT 10SM FEW050 06/M05 A2970 RMK AO2 PK WND 30027/0032
                 SLP056 T00611050 $ =
2017-11-19 18:53 METAR KFOK 192353Z 29015G29KT 10SM BKN048 06/M04 A2967 RMK AO2 PK WND 29029/2348
                 SLP047 T00611044 10100 20061 51042 $ =
2017-11-19 17:53 METAR KFOK 192253Z 30015G26KT 10SM OVC044 07/M03 A2965 RMK AO2 PK WND 30031/2208
                 SLP039 T00671028 $ =
2017-11-19 16:53 METAR KFOK 192153Z 29012G24KT 10SM CLR 07/M03 A2960 RMK AO2 PK WND 29035/2119
                 SLP022 T00671028 $ =
2017-11-19 15:53 METAR KFOK 192053Z 29017G29KT 10SM FEW039 08/M02 A2955 RMK AO2 PK WND 29035/2034
                 SLP004 T00781017 53041 $ =
2017-11-19 14:53 METAR KFOK 191953Z 29023G31KT 10SM CLR 09/M02 A2950 RMK AO2 PK WND 30037/1920
                 SLP987 T00941017 $ =
2017-11-19 13:53 METAR KFOK 191853Z 30023G36KT 10SM FEW042 09/M01 A2946 RMK AO2 PK WND 30038/1822
                 SLP975 T00941011 $ =
2017-11-19 12:53 METAR KFOK 191753Z 29026G37KT 10SM CLR 10/M01 A2942 RMK AO2 PK WND 27038/1723
                 SLP963 60010 T01001006 10150 20100 51048 $ =
2017-11-19 11:53 METAR KFOK 191653Z 29018G32KT 10SM CLR 11/01 A2938 RMK AO2 PK WND 29040/1632
                 SLP949 T01110011 $ =
2017-11-19 10:53 METAR KFOK 191553Z 28018G35KT 10SM FEW035 13/04 A2934 RMK AO2 PK WND 27035/1551
                 SLP936 T01280039 $ =
2017-11-19 09:53 METAR KFOK 191453Z 27025G34KT 10SM FEW024 SCT028 BKN036 14/08 A2928 RMK AO2 PK
                 WND 27034/1447 RAE20 SLP915 P0000 60010 T01390083 53002 $ =
2017-11-19 09:34 METAR KFOK 191434Z 25017G26KT 10SM FEW016 BKN034 OVC095 14/11 A2927 RMK AO2 PK
                 WND 23029/1405 RAE20 P0000 T01390111 $ =
2017-11-19 09:16 METAR KFOK 191416Z 24020G25KT 9SM -RA BKN017 BKN030 OVC075 14/12 A2926 RMK AO2
                 PK WND 23029/1405 P0000 T01390117 $ =
2017-11-19 08:53 METAR KFOK 191353Z 23016G27KT 6SM -RA BR SCT017 BKN034 OVC075 14/12 A2925 RMK
                 AO2 PK WND 24032/1334 RAE27B46 SLP906 P0001 T01440122 $ =
2017-11-19 08:45 METAR KFOK 191345Z 23020G29KT 7SM SCT015 BKN034 OVC070 14/12 A2926 RMK AO2 PK
                 WND 24032/1334 RAE27 P0001 T01440122 $ =
2017-11-19 07:53 METAR KFOK 191253Z 21016G24KT 4SM -RA BR OVC011 14/13 A2926 RMK AO2 PK WND
                 20028/1239 SLP908 P0009 T01440128 $ =
2017-11-19 07:16 METAR KFOK 191216Z 21012G23KT 6SM -RA BR OVC011 14/13 A2927 RMK AO2 P0002
                 T01440128 $ =
2017-11-19 07:06 METAR KFOK 191206Z 21013G24KT 6SM -RA BR FEW025 BKN055 OVC075 14/13 A2927 RMK
                 AO2 P0001 T01440128 $ =
2017-11-19 06:53 METAR KFOK 191153Z 22014G24KT 6SM -RA BR FEW011 BKN025 OVC055 14/13 A2928 RMK
                 AO2 SLP913 P0003 60034 70037 T01440128 10161 20144 56024 $ =
2017-11-19 06:44 METAR KFOK 191144Z AUTO 22014G24KT 6SM -RA BR SCT011 BKN023 OVC055 14/13 A2928
                 RMK AO2 P0003 T01440128 $ =
2017-11-19 06:35 METAR KFOK 191135Z AUTO 21014G21KT 6SM -RA BR BKN009 BKN014 OVC060 14/13 A2928
                 RMK AO2 CIG 006V012 P0003 T01440128 $ =
2017-11-19 06:05 METAR KFOK 191105Z AUTO 21014G24KT 5SM -RA BR BKN010 OVC015 14/13 A2929 RMK AO2
                 CIG 007V013 P0001 T01440128 $ =
2017-11-19 05:53 METAR KFOK 191053Z AUTO 21017G29KT 3SM +RA BR SCT010 BKN015 OVC028 14/13 A2929
                 RMK AO2 PK WND 21031/1026 SLP918 P0013 T01440128 $ =
2017-11-19 05:17 METAR KFOK 191017Z AUTO 21016G24KT 5SM -RA BR SCT015 BKN023 OVC029 15/13 A2931
                 RMK AO2 P0002 T01500133 $ =
2017-11-19 04:53 METAR KFOK 190953Z AUTO 21010G22KT 6SM -RA BR BKN013 BKN021 OVC033 15/13 A2932
                 RMK AO2 PK WND 20028/0855 SLP926 P0010 T01500133 $ =
2017-11-19 04:21 METAR KFOK 190921Z AUTO 21012G21KT 5SM -RA BR BKN012 OVC026 15/13 A2934 RMK AO2
                 PK WND 20028/0855 P0007 T01500133 $ =
2017-11-19 04:09 METAR KFOK 190909Z AUTO 22012G23KT 4SM -RA BR FEW008 BKN016 OVC049 15/13 A2934
                 RMK AO2 PK WND 20028/0855 P0006 T01500133 $ =
2017-11-19 04:02 METAR KFOK 190902Z AUTO 21012G28KT 2 1/2SM RA BR SCT010 OVC016 15/13 A2934 RMK
                 AO2 PK WND 20028/0855 P0004 T01500133 $ =
2017-11-19 03:53 METAR KFOK 190853Z AUTO 21014G21KT 3SM +RA BR BKN016 OVC033 15/13 A2935 RMK AO2
                 PK WND 22027/0830 RAB21 SLP937 P0008 60008 T01500133 56031 $ =
2017-11-19 02:53 METAR KFOK 190753Z AUTO 21015G23KT 8SM BKN021 OVC042 16/13 A2937 RMK AO2 SLP946
                 T01610128 $ =
2017-11-19 01:53 METAR KFOK 190653Z AUTO 21013G26KT 9SM OVC020 16/13 A2940 RMK AO2 PK WND
                 20026/0649 SLP956 T01610128 $ =
2017-11-19 00:53 METAR KFOK 190553Z AUTO 20015G22KT 9SM OVC026 16/12 A2944 RMK AO2 SLP968 60003
                 T01560122 10156 20111 56041 $ =
2017-11-19 00:36 METAR KFOK 190536Z AUTO 20014G21KT 10SM BKN026 OVC080 16/12 A2945 RMK AO2
                 T01560117 $ =
2017-11-18 23:53 METAR KFOK 190453Z AUTO 20013G26KT 9SM SCT028 BKN080 15/12 A2947 RMK AO2 PK WND
                 19026/0445 RAE0357B17E34 SLP980 P0000 T01500117 401501083 $ =

Support USWX by starting your Amazon purchase here.